createdAt,value
2022-12-25T00:01:11.867Z,6.41
2022-12-25T00:03:48.528Z,6.61
2022-12-25T00:06:17.618Z,6.73
2022-12-25T00:08:45.989Z,6.88
2022-12-25T00:11:20.004Z,7.10
2022-12-25T00:13:49.127Z,7.28
2022-12-25T00:16:23.263Z,7.22
2022-12-25T00:18:51.704Z,6.26
2022-12-25T00:21:21.389Z,5.23
2022-12-25T00:23:55.434Z,4.39
2022-12-25T00:26:24.652Z,4.01
2022-12-25T00:28:57.418Z,5.18
2022-12-25T00:31:26.471Z,6.15
2022-12-25T00:33:54.990Z,6.44
2022-12-25T00:36:23.936Z,6.69
2022-12-25T00:38:51.886Z,6.98
2022-12-25T00:41:43.016Z,7.22
2022-12-25T00:44:14.064Z,7.47
2022-12-25T00:46:42.993Z,7.43
2022-12-25T00:49:12.327Z,6.46
2022-12-25T00:51:40.489Z,5.41
2022-12-25T00:54:08.809Z,4.61
2022-12-25T00:56:36.707Z,4.27
2022-12-25T00:59:04.555Z,5.57
2022-12-25T01:01:33.599Z,7.01
2022-12-25T01:04:01.699Z,7.61
2022-12-25T01:06:30.189Z,7.72
2022-12-25T01:09:17.547Z,7.62
2022-12-25T01:11:45.713Z,6.47
2022-12-25T01:14:14.505Z,5.40
2022-12-25T01:16:42.742Z,4.51
2022-12-25T01:19:11.318Z,4.03
2022-12-25T01:21:39.513Z,4.97
2022-12-25T01:24:07.676Z,6.93
2022-12-25T01:26:35.470Z,8.12
2022-12-25T01:29:03.986Z,8.18
2022-12-25T01:31:31.854Z,7.10
2022-12-25T01:33:59.761Z,5.90
2022-12-25T01:36:27.656Z,4.98
2022-12-25T01:38:55.829Z,4.25
2022-12-25T01:41:25.593Z,4.20
2022-12-25T01:44:28.988Z,6.18
2022-12-25T01:46:56.763Z,8.21
2022-12-25T01:49:26.514Z,8.53
2022-12-25T01:52:05.519Z,7.42
2022-12-25T01:54:41.496Z,6.11
2022-12-25T01:57:17.143Z,5.19
2022-12-25T01:59:46.229Z,4.95
2022-12-25T02:02:14.744Z,6.60
2022-12-25T02:04:52.428Z,8.08
2022-12-25T02:07:25.050Z,8.19
2022-12-25T02:09:53.679Z,7.05
2022-12-25T02:12:26.996Z,5.88
2022-12-25T02:15:05.793Z,5.02
2022-12-25T02:17:42.886Z,4.95
2022-12-25T02:20:34.012Z,6.88
2022-12-25T02:23:58.182Z,8.63
2022-12-25T02:27:02.924Z,8.68
2022-12-25T02:29:50.884Z,7.06
2022-12-25T02:32:39.153Z,5.87
2022-12-25T02:35:25.631Z,4.98
2022-12-25T02:38:14.373Z,4.30
2022-12-25T02:40:57.476Z,4.07
2022-12-25T02:43:53.460Z,5.81
2022-12-25T02:46:43.812Z,7.80
2022-12-25T02:49:42.754Z,8.99
2022-12-25T02:52:35.347Z,8.80
2022-12-25T02:55:33.165Z,7.20
2022-12-25T02:58:27.856Z,5.80
2022-12-25T03:01:24.032Z,4.81
2022-12-25T03:04:16.872Z,3.99
2022-12-25T03:07:12.025Z,4.03
2022-12-25T03:10:06.051Z,5.92
2022-12-25T03:13:17.072Z,6.87
2022-12-25T03:16:05.255Z,7.45
2022-12-25T03:18:34.562Z,7.72
2022-12-25T03:21:21.822Z,7.70
2022-12-25T03:24:16.696Z,6.58
2022-12-25T03:26:58.113Z,5.37
2022-12-25T03:29:52.679Z,4.53
2022-12-25T03:32:41.751Z,4.67
2022-12-25T03:35:33.441Z,6.97
2022-12-25T03:38:48.348Z,8.51
2022-12-25T03:42:01.631Z,8.24
2022-12-25T03:46:02.750Z,6.13
2022-12-25T03:48:55.266Z,4.26
2022-12-25T03:51:50.001Z,4.18
2022-12-25T03:54:45.885Z,6.12
2022-12-25T03:57:33.472Z,7.59
2022-12-25T04:00:20.455Z,7.68
2022-12-25T04:03:07.133Z,5.84
2022-12-25T04:05:53.742Z,4.24
2022-12-25T04:08:40.051Z,3.99
2022-12-25T04:11:26.495Z,5.79
2022-12-25T04:14:12.912Z,7.19
2022-12-25T04:16:59.464Z,8.16
2022-12-25T04:19:53.353Z,8.12
2022-12-25T04:22:40.209Z,6.25
2022-12-25T04:25:27.075Z,4.71
2022-12-25T04:28:19.263Z,3.66
2022-12-25T04:31:06.202Z,4.73
2022-12-25T04:33:52.731Z,6.65
2022-12-25T04:36:21.758Z,7.42
2022-12-25T04:38:49.614Z,7.34
2022-12-25T04:41:17.484Z,6.00
2022-12-25T04:43:45.333Z,4.71
2022-12-25T04:46:13.203Z,4.11
2022-12-25T04:48:41.046Z,5.39
2022-12-25T04:51:22.369Z,6.95
2022-12-25T04:53:51.976Z,7.89
2022-12-25T04:56:21.353Z,7.96
2022-12-25T04:58:49.607Z,6.67
2022-12-25T05:01:17.753Z,5.33
2022-12-25T05:03:45.868Z,4.32
2022-12-25T05:06:13.833Z,3.87
2022-12-25T05:08:41.731Z,5.03
2022-12-25T05:11:13.568Z,6.30
2022-12-25T05:13:41.801Z,7.15
2022-12-25T05:16:15.371Z,7.74
2022-12-25T05:18:44.277Z,7.87
2022-12-25T05:21:12.617Z,6.80
2022-12-25T05:23:48.752Z,5.61
2022-12-25T05:26:20.485Z,4.64
2022-12-25T05:28:49.533Z,4.35
2022-12-25T05:31:19.055Z,5.80
2022-12-25T05:33:51.545Z,6.96
2022-12-25T05:36:19.665Z,7.65
2022-12-25T05:38:47.517Z,7.80
2022-12-25T05:41:15.544Z,6.82
2022-12-25T05:43:43.331Z,5.75
2022-12-25T05:46:13.929Z,5.21
2022-12-25T05:48:42.122Z,6.16
2022-12-25T05:51:14.846Z,7.93
2022-12-25T05:53:43.889Z,8.77
2022-12-25T05:56:11.997Z,7.62
2022-12-25T05:58:41.031Z,6.35
2022-12-25T06:01:17.345Z,5.46
2022-12-25T06:03:45.681Z,4.74
2022-12-25T06:06:14.386Z,4.13
2022-12-25T06:08:42.820Z,3.96
2022-12-25T06:11:13.593Z,5.28
2022-12-25T06:13:42.233Z,6.87
2022-12-25T06:16:12.381Z,7.78
2022-12-25T06:18:46.404Z,8.37
2022-12-25T06:21:16.234Z,8.39
2022-12-25T06:23:45.426Z,7.07
2022-12-25T06:26:19.547Z,5.71
2022-12-25T06:28:48.143Z,4.61
2022-12-25T06:31:20.891Z,4.79
2022-12-25T06:33:50.254Z,5.75
2022-12-25T06:36:29.601Z,6.60
2022-12-25T06:39:01.323Z,7.74
2022-12-25T06:41:30.614Z,8.24
2022-12-25T06:44:01.630Z,8.21
2022-12-25T06:46:32.128Z,7.08
2022-12-25T06:49:00.783Z,5.73
2022-12-25T06:51:32.163Z,4.66
2022-12-25T06:54:04.106Z,4.07
2022-12-25T06:56:33.833Z,5.63
2022-12-25T06:59:09.004Z,7.66
2022-12-25T07:01:51.546Z,8.77
2022-12-25T07:04:33.621Z,8.66
2022-12-25T07:07:08.386Z,7.10
2022-12-25T07:09:42.575Z,5.71
2022-12-25T07:12:21.106Z,4.74
2022-12-25T07:14:50.267Z,3.94
2022-12-25T07:17:20.464Z,3.78
2022-12-25T07:19:49.230Z,5.34
2022-12-25T07:22:17.774Z,7.20
2022-12-25T07:24:45.665Z,8.04
2022-12-25T07:27:13.492Z,8.34
2022-12-25T07:29:41.412Z,8.29
2022-12-25T07:32:09.493Z,6.95
2022-12-25T07:34:37.407Z,5.67
2022-12-25T07:37:05.272Z,4.58
2022-12-25T07:39:34.675Z,4.23
2022-12-25T07:42:02.474Z,5.89
2022-12-25T07:44:30.395Z,7.07
2022-12-25T07:46:58.206Z,7.88
2022-12-25T07:49:26.174Z,8.21
2022-12-25T07:51:54.002Z,8.12
2022-12-25T07:54:21.902Z,6.98
2022-12-25T07:56:53.706Z,5.76
2022-12-25T07:59:21.649Z,4.81
2022-12-25T08:01:50.781Z,4.62
2022-12-25T08:04:19.297Z,6.15
2022-12-25T08:06:47.347Z,7.08
2022-12-25T08:09:15.285Z,7.52
2022-12-25T08:11:47.485Z,7.80
2022-12-25T08:14:15.898Z,8.09
2022-12-25T08:16:44.752Z,8.55
2022-12-25T08:19:14.592Z,8.72
2022-12-25T08:21:42.457Z,7.73
2022-12-25T08:24:10.920Z,6.65
2022-12-25T08:26:38.744Z,5.81
2022-12-25T08:29:11.361Z,5.35
2022-12-25T08:31:46.687Z,6.02
2022-12-25T08:34:15.547Z,6.99
2022-12-25T08:36:43.651Z,7.54
2022-12-25T08:39:11.944Z,7.81
2022-12-25T08:41:40.431Z,8.06
2022-12-25T08:44:08.393Z,8.46
2022-12-25T08:46:36.880Z,8.38
2022-12-25T08:49:04.964Z,7.37
2022-12-25T08:51:32.943Z,6.37
2022-12-25T08:54:01.296Z,5.50
2022-12-25T08:56:29.626Z,5.04
2022-12-25T08:58:57.683Z,5.79
2022-12-25T09:01:25.675Z,6.92
2022-12-25T09:03:53.659Z,7.70
2022-12-25T09:06:21.505Z,8.18
2022-12-25T09:08:50.063Z,8.21
2022-12-25T09:11:20.543Z,7.19
2022-12-25T09:13:49.450Z,6.09
2022-12-25T09:16:21.797Z,5.27
2022-12-25T09:18:50.685Z,4.95
2022-12-25T09:21:19.718Z,6.47
2022-12-25T09:23:47.704Z,8.03
2022-12-25T09:26:18.533Z,8.68
2022-12-25T09:28:51.933Z,8.87
2022-12-25T09:31:22.859Z,7.87
2022-12-25T09:33:52.041Z,6.76
2022-12-25T09:36:23.441Z,5.89
2022-12-25T09:38:52.858Z,5.49
2022-12-25T09:41:34.713Z,7.02
2022-12-25T09:44:10.085Z,9.00
2022-12-25T09:46:49.134Z,9.26
2022-12-25T09:49:38.153Z,7.94
2022-12-25T09:52:31.618Z,6.59
2022-12-25T09:55:20.050Z,5.54
2022-12-25T09:57:55.914Z,5.22
2022-12-25T10:00:34.166Z,7.11
2022-12-25T10:03:23.371Z,8.97
2022-12-25T10:06:33.403Z,9.02
2022-12-25T10:09:26.444Z,7.54
2022-12-25T10:12:30.366Z,6.38
2022-12-25T10:15:26.406Z,5.99
2022-12-25T10:18:53.799Z,7.13
2022-12-25T10:21:23.929Z,8.24
2022-12-25T10:24:33.442Z,8.76
2022-12-25T10:27:08.194Z,8.38
2022-12-25T10:29:36.323Z,7.31
2022-12-25T10:32:04.641Z,6.45
2022-12-25T10:34:33.490Z,5.65
2022-12-25T10:37:02.245Z,5.22
2022-12-25T10:39:30.243Z,6.03
2022-12-25T10:42:31.114Z,7.11
2022-12-25T10:45:08.344Z,7.99
2022-12-25T10:47:42.765Z,8.51
2022-12-25T10:50:24.844Z,8.83
2022-12-25T10:53:04.910Z,8.70
2022-12-25T10:55:33.839Z,7.54
2022-12-25T10:58:02.413Z,6.47
2022-12-25T11:00:33.126Z,5.91
2022-12-25T11:03:01.560Z,6.57
2022-12-25T11:05:35.055Z,7.45
2022-12-25T11:08:04.222Z,7.96
2022-12-25T11:10:38.196Z,8.20
2022-12-25T11:13:17.715Z,8.54
2022-12-25T11:15:49.333Z,8.85
2022-12-25T11:18:29.615Z,8.76
2022-12-25T11:21:02.846Z,7.72
2022-12-25T11:23:33.239Z,6.72
2022-12-25T11:26:07.997Z,5.97
2022-12-25T11:28:46.623Z,5.69
2022-12-25T11:31:20.654Z,6.58
2022-12-25T11:34:05.640Z,7.50
2022-12-25T11:36:51.834Z,8.07
2022-12-25T11:39:28.482Z,8.46
2022-12-25T11:42:14.374Z,8.78
2022-12-25T11:44:49.682Z,8.59
2022-12-25T11:47:45.171Z,7.48
2022-12-25T11:50:21.169Z,6.29
2022-12-25T11:52:58.471Z,5.78
2022-12-25T11:55:41.543Z,6.47
2022-12-25T11:58:36.233Z,7.27
2022-12-25T12:01:34.154Z,7.83
2022-12-25T12:04:08.758Z,8.25
2022-12-25T12:07:02.027Z,8.48
2022-12-25T12:10:06.456Z,8.75
2022-12-25T12:13:10.580Z,8.64
2022-12-25T12:15:47.505Z,7.33
2022-12-25T12:18:23.599Z,6.32
2022-12-25T12:21:18.094Z,5.72
2022-12-25T12:23:47.284Z,6.31
2022-12-25T12:26:25.086Z,6.92
2022-12-25T12:28:59.485Z,7.29
2022-12-25T12:31:43.036Z,7.53
2022-12-25T12:34:34.553Z,7.76
2022-12-25T12:37:08.402Z,8.01
2022-12-25T12:39:40.857Z,8.13
2022-12-25T12:42:21.414Z,8.20
2022-12-25T12:44:50.600Z,8.35
2022-12-25T12:47:47.029Z,8.42
2022-12-25T12:50:33.165Z,8.38
2022-12-25T12:53:22.200Z,8.62
2022-12-25T12:55:52.130Z,9.07
2022-12-25T12:58:40.488Z,9.13
2022-12-25T13:01:26.655Z,7.88
2022-12-25T13:04:34.861Z,6.61
2022-12-25T13:07:24.910Z,5.52
2022-12-25T13:10:13.792Z,5.11
2022-12-25T13:12:41.930Z,5.94
2022-12-25T13:15:21.393Z,6.81
2022-12-25T13:17:50.226Z,7.43
2022-12-25T13:20:33.461Z,7.58
2022-12-25T13:23:01.400Z,7.76
2022-12-25T13:25:29.440Z,7.92
2022-12-25T13:27:59.639Z,8.07
2022-12-25T13:30:27.844Z,8.21
2022-12-25T13:33:00.282Z,8.31
2022-12-25T13:35:28.520Z,8.45
2022-12-25T13:37:56.847Z,8.58
2022-12-25T13:40:28.577Z,8.73
2022-12-25T13:43:01.912Z,8.71
2022-12-25T13:45:31.389Z,7.75
2022-12-25T13:48:15.928Z,6.65
2022-12-25T13:50:48.648Z,6.00
2022-12-25T13:53:18.192Z,6.51
2022-12-25T13:55:56.030Z,7.12
2022-12-25T13:58:31.635Z,7.56
2022-12-25T14:01:02.817Z,7.88
2022-12-25T14:03:46.217Z,8.16
2022-12-25T14:06:32.597Z,8.34
2022-12-25T14:09:00.969Z,8.47
2022-12-25T14:11:32.373Z,8.58
2022-12-25T14:14:12.350Z,8.69
2022-12-25T14:16:43.814Z,8.78
2022-12-25T14:19:29.884Z,8.63
2022-12-25T14:22:22.727Z,7.53
2022-12-25T14:24:51.255Z,6.36
2022-12-25T14:27:32.680Z,5.78
2022-12-25T14:30:01.689Z,6.32
2022-12-25T14:32:38.524Z,7.00
2022-12-25T14:35:07.175Z,7.56
2022-12-25T14:37:37.373Z,7.93
2022-12-25T14:40:26.315Z,8.08
2022-12-25T14:43:17.234Z,8.13
2022-12-25T14:45:59.981Z,8.20
2022-12-25T14:48:31.979Z,8.22
2022-12-25T14:51:04.184Z,8.15
2022-12-25T14:53:49.272Z,8.12
2022-12-25T14:56:24.603Z,8.11
2022-12-25T14:58:57.418Z,8.04
2022-12-25T15:01:36.327Z,8.03
2022-12-25T15:04:10.227Z,8.10
2022-12-25T15:07:00.040Z,8.23
2022-12-25T15:09:30.215Z,8.64
2022-12-25T15:11:58.211Z,9.59
2022-12-25T15:14:27.599Z,9.60
2022-12-25T15:17:00.708Z,8.41
2022-12-25T15:19:38.149Z,7.13
2022-12-25T15:22:07.149Z,6.12
2022-12-25T15:24:35.664Z,6.04
2022-12-25T15:27:05.490Z,8.00
2022-12-25T15:30:08.030Z,9.60
2022-12-25T15:32:24.328Z,9.76
2022-12-25T15:34:54.292Z,8.43
2022-12-25T15:37:22.144Z,7.15
2022-12-25T15:39:50.069Z,6.21
2022-12-25T15:42:23.117Z,5.87
2022-12-25T15:44:52.018Z,7.29
2022-12-25T15:47:20.374Z,8.68
2022-12-25T15:49:49.211Z,9.60
2022-12-25T15:52:18.360Z,9.56
2022-12-25T15:54:46.379Z,8.39
2022-12-25T15:57:22.476Z,7.24
2022-12-25T15:59:50.383Z,6.60
2022-12-25T16:02:21.181Z,7.26
2022-12-25T16:04:51.207Z,8.19
2022-12-25T16:07:23.637Z,8.78
2022-12-25T16:09:52.583Z,9.19
2022-12-25T16:12:20.772Z,9.19
2022-12-25T16:14:48.797Z,8.28
2022-12-25T16:17:16.850Z,7.30
2022-12-25T16:19:44.983Z,6.49
2022-12-25T16:22:18.646Z,6.03
2022-12-25T16:24:46.709Z,6.75
2022-12-25T16:27:14.916Z,7.75
2022-12-25T16:29:43.308Z,9.21
2022-12-25T16:32:13.492Z,9.68
2022-12-25T16:34:41.570Z,9.40
2022-12-25T16:37:09.502Z,8.24
2022-12-25T16:39:38.409Z,7.10
2022-12-25T16:42:06.489Z,6.37
2022-12-25T16:44:37.637Z,6.73
2022-12-25T16:47:05.816Z,7.35
2022-12-25T16:49:33.897Z,7.76
2022-12-25T16:52:02.760Z,8.02
2022-12-25T16:54:30.657Z,8.21
2022-12-25T16:56:58.546Z,8.33
2022-12-25T16:59:29.585Z,8.43
2022-12-25T17:01:57.627Z,8.58
2022-12-25T17:04:27.626Z,8.73
2022-12-25T17:06:56.371Z,8.78
2022-12-25T17:09:24.965Z,8.84
2022-12-25T17:11:53.024Z,8.89
2022-12-25T17:14:21.684Z,8.72
2022-12-25T17:16:55.023Z,7.75
2022-12-25T17:19:26.539Z,6.77
2022-12-25T17:21:57.442Z,6.54
2022-12-25T17:24:28.163Z,8.41
2022-12-25T17:26:56.202Z,9.86
2022-12-25T17:29:30.726Z,10.38
2022-12-25T17:31:58.778Z,9.20
2022-12-25T17:34:27.387Z,7.90
2022-12-25T17:36:59.213Z,6.91
2022-12-25T17:39:27.452Z,6.65
2022-12-25T17:41:55.420Z,8.43
2022-12-25T17:44:23.501Z,10.03
2022-12-25T17:46:51.762Z,10.32
2022-12-25T17:49:21.980Z,8.97
2022-12-25T17:51:50.452Z,7.49
2022-12-25T17:54:18.571Z,6.80
2022-12-25T17:56:49.629Z,8.22
2022-12-25T17:59:19.039Z,9.45
2022-12-25T18:01:48.552Z,9.98
2022-12-25T18:04:17.168Z,10.16
2022-12-25T18:06:45.835Z,8.95
2022-12-25T18:09:17.886Z,7.50
2022-12-25T18:11:46.159Z,6.38
2022-12-25T18:14:16.837Z,6.06
2022-12-25T18:16:46.165Z,7.78
2022-12-25T18:19:15.802Z,9.09
2022-12-25T18:21:44.672Z,9.28
2022-12-25T18:24:13.408Z,9.32
2022-12-25T18:26:41.375Z,9.30
2022-12-25T18:29:09.655Z,8.30
2022-12-25T18:31:37.735Z,7.15
2022-12-25T18:34:05.642Z,6.45
2022-12-25T18:36:34.148Z,6.98
2022-12-25T18:39:05.959Z,7.60
2022-12-25T18:41:54.497Z,7.94
2022-12-25T18:44:22.443Z,8.10
2022-12-25T18:46:50.383Z,8.30
2022-12-25T18:49:18.232Z,8.58
2022-12-25T18:51:46.085Z,9.65
2022-12-25T18:54:13.914Z,10.69
2022-12-25T18:56:42.026Z,10.66
2022-12-25T18:59:09.999Z,9.34
2022-12-25T19:01:39.974Z,7.94
2022-12-25T19:04:12.980Z,6.86
2022-12-25T19:06:43.780Z,6.57
2022-12-25T19:09:11.977Z,8.18
2022-12-25T19:11:46.504Z,9.07
2022-12-25T19:14:15.928Z,9.25
2022-12-25T19:16:44.903Z,9.46
2022-12-25T19:19:14.491Z,9.53
2022-12-25T19:21:42.297Z,9.34
2022-12-25T19:24:10.518Z,8.26
2022-12-25T19:26:38.815Z,7.14
2022-12-25T19:29:07.112Z,6.42
2022-12-25T19:31:35.303Z,6.83
2022-12-25T19:34:04.273Z,7.45
2022-12-25T19:36:32.767Z,7.81
2022-12-25T19:39:01.094Z,8.04
2022-12-25T19:41:29.177Z,8.11
2022-12-25T19:43:57.461Z,8.21
2022-12-25T19:46:36.614Z,8.36
2022-12-25T19:49:05.308Z,8.45
2022-12-25T19:51:44.672Z,8.38
2022-12-25T19:54:20.748Z,8.42
2022-12-25T19:56:49.397Z,8.43
2022-12-25T19:59:17.385Z,8.47
2022-12-25T20:01:45.645Z,8.49
2022-12-25T20:04:15.346Z,8.54
2022-12-25T20:06:44.437Z,8.59
2022-12-25T20:09:21.485Z,8.61
2022-12-25T20:11:49.979Z,8.49
2022-12-25T20:14:18.394Z,8.41
2022-12-25T20:16:47.079Z,8.39
2022-12-25T20:19:15.770Z,8.40
2022-12-25T20:21:43.869Z,8.49
2022-12-25T20:24:12.128Z,8.51
2022-12-25T20:26:40.152Z,8.57
2022-12-25T20:29:08.274Z,8.61
2022-12-25T20:31:36.532Z,8.67
2022-12-25T20:34:08.926Z,8.66
2022-12-25T20:36:38.256Z,8.67
2022-12-25T20:39:10.247Z,8.67
2022-12-25T20:41:39.891Z,8.73
2022-12-25T20:44:10.503Z,8.75
2022-12-25T20:46:38.831Z,8.83
2022-12-25T20:49:06.928Z,8.97
2022-12-25T20:51:35.130Z,9.04
2022-12-25T20:54:08.506Z,9.01
2022-12-25T20:56:36.957Z,8.89
2022-12-25T20:59:04.779Z,8.79
2022-12-25T21:01:32.723Z,8.75
2022-12-25T21:04:00.722Z,8.58
2022-12-25T21:06:28.607Z,8.46
2022-12-25T21:08:56.534Z,8.43
2022-12-25T21:11:24.481Z,8.31
2022-12-25T21:13:52.645Z,8.22
2022-12-25T21:16:22.981Z,8.12
2022-12-25T21:18:53.679Z,8.28
2022-12-25T21:21:22.851Z,8.37
2022-12-25T21:23:51.187Z,8.48
2022-12-25T21:26:23.441Z,8.48
2022-12-25T21:28:55.786Z,8.51
2022-12-25T21:31:25.711Z,8.41
2022-12-25T21:33:55.919Z,8.44
2022-12-25T21:36:31.022Z,8.39
2022-12-25T21:39:03.281Z,8.32
2022-12-25T21:41:34.308Z,8.27
2022-12-25T21:44:02.413Z,8.15
2022-12-25T21:46:31.009Z,8.02
2022-12-25T21:48:59.973Z,8.01
2022-12-25T21:51:50.170Z,8.10
2022-12-25T21:54:21.108Z,8.22
2022-12-25T21:56:50.431Z,8.32
2022-12-25T21:59:22.036Z,8.25
2022-12-25T22:01:52.056Z,8.43
2022-12-25T22:04:23.457Z,8.74
2022-12-25T22:07:10.786Z,9.00
2022-12-25T22:09:38.989Z,9.01
2022-12-25T22:12:32.110Z,8.96
2022-12-25T22:15:09.928Z,8.92
2022-12-25T22:18:01.785Z,8.93
2022-12-25T22:20:36.089Z,8.82
2022-12-25T22:23:05.258Z,8.71
2022-12-25T22:25:33.262Z,8.65
2022-12-25T22:28:01.216Z,8.76
2022-12-25T22:30:29.597Z,9.03
2022-12-25T22:32:58.402Z,9.25
2022-12-25T22:35:26.542Z,9.41
2022-12-25T22:37:54.885Z,9.50
2022-12-25T22:40:22.850Z,9.59
2022-12-25T22:42:55.542Z,9.66
2022-12-25T22:45:24.344Z,9.62
2022-12-25T22:47:52.273Z,9.72
2022-12-25T22:50:20.388Z,9.80
2022-12-25T22:52:48.243Z,9.90
2022-12-25T22:55:18.612Z,9.86
2022-12-25T22:57:46.864Z,9.84
2022-12-25T23:00:14.869Z,9.83
2022-12-25T23:02:42.921Z,9.74
2022-12-25T23:05:11.203Z,9.72
2022-12-25T23:07:39.084Z,9.67
2022-12-25T23:10:08.258Z,9.73
2022-12-25T23:12:54.922Z,9.92
2022-12-25T23:15:23.015Z,9.95
2022-12-25T23:18:09.880Z,9.99
2022-12-25T23:20:56.788Z,10.04
2022-12-25T23:23:43.342Z,10.03
2022-12-25T23:26:12.948Z,10.00
2022-12-25T23:29:01.856Z,9.92
2022-12-25T23:31:35.759Z,10.01
2022-12-25T23:34:06.015Z,9.99
2022-12-25T23:36:34.773Z,10.01
2022-12-25T23:39:09.651Z,10.01
2022-12-25T23:41:40.546Z,9.94
2022-12-25T23:44:11.252Z,9.83
2022-12-25T23:46:40.399Z,9.89
2022-12-25T23:49:10.455Z,9.97
2022-12-25T23:51:45.278Z,10.06
2022-12-25T23:54:18.267Z,10.09
2022-12-25T23:56:46.578Z,10.06
2022-12-25T23:59:15.257Z,10.20
